Aviation Digital Data Service (ADDS)

Output produced by TAFs form (1224 UTC 01 November 2014)
found at http://www.aviationweather.gov/adds/tafs/
 
KPSF 011125Z 0112/0212 01006KT P6SM OVC060 
     FM011400 01008G14KT P6SM -SHRA OVC035 
     FM011800 36010G15KT P6SM -RA OVC035 
     TEMPO 0119/0123 5SM -RA OVC030 
     FM020100 34012G18KT 4SM -SHRASN OVC025 
     FM020400 33012G20KT 4SM -SHSN OVC025 
     FM020800 32014G25KT P6SM VCSH OVC035